Time;durP1;ratioP1;P1;durP2;ratioP2;P2;SDS_P1;SDS_P2;PMS_P1;PMS_P2;Temp;Humidity;BMP_temperature;BMP_pressure;BME280_temperature;BME280_humidity;BME280_pressure;Samples;Min_cycle;Max_cycle;Signal;HPM_P1;HPM_P2
2022/03/01 00:00:42;;;;;;;40.30;21.27;;;;;;;37.44;48.92;100910.38;5010423;28;20419;-73
2022/03/01 00:03:08;;;;;;;34.00;19.10;;;;;;;37.78;47.57;100908.03;5010661;28;20445;-73
2022/03/01 00:05:34;;;;;;;49.90;20.80;;;;;;;37.58;47.90;100903.84;5010932;28;20412;-73
2022/03/01 00:08:00;;;;;;;76.47;20.57;;;;;;;37.70;48.01;100900.63;5011005;28;20412;-73
2022/03/01 00:10:27;;;;;;;44.93;18.23;;;;;;;37.61;47.72;100897.03;5010881;28;20439;-74
2022/03/01 00:12:53;;;;;;;53.00;19.87;;;;;;;37.72;47.42;100900.31;5010855;28;20464;-73
2022/03/01 00:15:19;;;;;;;36.20;17.90;;;;;;;37.65;48.00;100900.75;5010493;28;20495;-73
2022/03/01 00:17:45;;;;;;;32.70;16.53;;;;;;;37.94;47.42;100907.72;4994655;28;20420;-73
2022/03/01 00:20:12;;;;;;;46.73;20.17;;;;;;;37.76;47.43;100896.72;5011206;28;20440;-73
2022/03/01 00:22:38;;;;;;;34.33;19.47;;;;;;;37.89;47.60;100897.81;5010833;28;20991;-73
2022/03/01 00:25:05;;;;;;;26.67;16.90;;;;;;;38.11;47.15;100895.13;5009662;28;20519;-74
2022/03/01 00:27:31;;;;;;;43.97;17.20;;;;;;;37.82;46.82;100894.72;5010951;28;20535;-73
2022/03/01 00:29:57;;;;;;;25.93;15.50;;;;;;;38.01;46.85;100891.88;5010796;28;20440;-73
2022/03/01 00:32:23;;;;;;;29.97;17.50;;;;;;;37.75;46.88;100886.16;4994642;28;20405;-74
2022/03/01 00:34:49;;;;;;;46.43;17.80;;;;;;;37.83;46.75;100888.19;5010275;28;20462;-74
2022/03/01 00:37:15;;;;;;;43.40;19.37;;;;;;;37.28;47.67;100882.81;5010818;28;20412;-73
2022/03/01 00:39:41;;;;;;;38.10;17.30;;;;;;;37.34;47.11;100881.63;5010507;28;20400;-74
2022/03/01 00:42:07;;;;;;;34.60;18.67;;;;;;;37.27;48.06;100886.63;5010166;28;20843;-73
2022/03/01 00:44:34;;;;;;;27.27;16.30;;;;;;;37.39;47.95;100878.81;5012029;28;20844;-73
2022/03/01 00:47:00;;;;;;;43.47;19.67;;;;;;;37.30;48.62;100877.88;5012057;28;20897;-73
2022/03/01 00:49:26;;;;;;;32.97;16.40;;;;;;;37.48;47.65;100870.78;5010541;28;20443;-72
2022/03/01 00:51:52;;;;;;;51.07;21.30;;;;;;;37.18;48.17;100872.19;5010664;28;20408;-72
2022/03/01 00:54:18;;;;;;;42.43;17.90;;;;;;;37.37;48.38;100864.78;5010444;28;20511;-73
2022/03/01 00:56:44;;;;;;;39.70;18.67;;;;;;;37.30;48.02;100875.19;5010817;28;20440;-73
2022/03/01 00:59:10;;;;;;;58.13;18.73;;;;;;;37.52;47.80;100872.59;5010629;28;20502;-74
2022/03/01 01:01:37;;;;;;;36.87;16.97;;;;;;;37.60;47.63;100861.03;5010440;28;20531;-73
2022/03/01 01:04:03;;;;;;;37.87;18.17;;;;;;;37.81;47.82;100866.84;5010475;28;20448;-74
2022/03/01 01:06:29;;;;;;;37.13;20.17;;;;;;;37.64;47.71;100859.34;5010430;28;20447;-73
2022/03/01 01:08:55;;;;;;;50.50;20.80;;;;;;;37.77;47.66;100862.31;5010503;28;20420;-73
2022/03/01 01:11:22;;;;;;;37.40;16.93;;;;;;;37.74;46.97;100863.72;5010296;28;20436;-73
2022/03/01 01:13:48;;;;;;;28.43;18.70;;;;;;;37.71;47.20;100863.53;5011541;28;20455;-72
2022/03/01 01:16:14;;;;;;;30.53;17.87;;;;;;;37.75;47.50;100856.38;5010527;28;20440;-75
2022/03/01 01:18:43;;;;;;;33.33;19.47;;;;;;;37.96;47.22;100849.44;5011531;28;20467;-73
2022/03/01 01:21:13;;;;;;;43.10;18.97;;;;;;;37.77;46.97;100846.88;4994508;28;20424;-73
2022/03/01 01:23:41;;;;;;;50.20;22.93;;;;;;;37.95;46.64;100853.28;4994340;28;20436;-72
2022/03/01 01:26:08;;;;;;;28.77;18.57;;;;;;;37.63;47.43;100846.91;5010219;28;20920;-73
2022/03/01 01:28:34;;;;;;;31.00;17.47;;;;;;;37.75;46.59;100840.97;5010373;28;20952;-74
2022/03/01 01:31:00;;;;;;;54.00;20.63;;;;;;;37.55;47.10;100836.78;5010233;28;20416;-73
2022/03/01 01:33:26;;;;;;;35.93;18.67;;;;;;;37.83;46.70;100828.63;5010327;28;20507;-73
2022/03/01 01:35:53;;;;;;;45.43;20.20;;;;;;;37.56;45.81;100837.59;5010223;28;20419;-72
2022/03/01 01:38:19;;;;;;;37.53;15.83;;;;;;;37.69;46.23;100817.00;5010392;28;20938;-73
2022/03/01 01:40:45;;;;;;;35.07;18.20;;;;;;;37.71;46.29;100809.41;5010166;28;20961;-73
2022/03/01 01:43:11;;;;;;;34.17;14.53;;;;;;;37.54;46.17;100818.94;5010039;28;20448;-73
2022/03/01 01:45:37;;;;;;;46.53;16.00;;;;;;;37.75;46.62;100804.94;5011523;28;20480;-74
2022/03/01 01:48:03;;;;;;;43.50;18.87;;;;;;;37.65;45.88;100814.91;5014110;28;20428;-72
2022/03/01 01:50:33;;;;;;;35.47;16.13;;;;;;;37.84;45.94;100803.16;5014951;28;20476;-72
2022/03/01 01:52:59;;;;;;;52.40;19.23;;;;;;;37.83;45.84;100806.97;5014993;28;20386;-74
2022/03/01 01:55:27;;;;;;;37.63;17.53;;;;;;;37.78;45.48;100810.56;5013414;28;20467;-74
2022/03/01 01:57:55;;;;;;;47.77;19.30;;;;;;;37.60;46.65;100804.22;5013564;28;20421;-72
2022/03/01 02:00:22;;;;;;;35.33;16.53;;;;;;;37.98;45.64;100811.22;5013288;28;20440;-72
2022/03/01 02:02:48;;;;;;;41.87;17.30;;;;;;;37.81;45.48;100810.00;5013344;28;20971;-74
2022/03/01 02:05:14;;;;;;;34.57;18.43;;;;;;;37.95;45.30;100812.66;5013662;28;20933;-74
2022/03/01 02:07:50;;;;;;;25.80;14.37;;;;;;;37.89;45.24;100808.47;5013219;28;20428;-74
2022/03/01 02:10:17;;;;;;;34.37;17.87;;;;;;;37.97;45.26;100806.91;5014627;28;20401;-73
2022/03/01 02:12:44;;;;;;;35.33;17.10;;;;;;;37.80;45.43;100807.56;5014401;28;20436;-73
2022/03/01 02:15:10;;;;;;;41.43;17.97;;;;;;;37.95;45.53;100801.81;5013067;28;20460;-73
2022/03/01 02:17:40;;;;;;;28.93;15.00;;;;;;;37.74;46.02;100798.75;5013391;28;20413;-74
2022/03/01 02:20:15;;;;;;;36.77;17.53;;;;;;;37.81;46.30;100801.88;5014503;28;20471;-73
2022/03/01 02:22:41;;;;;;;32.20;14.90;;;;;;;37.81;46.00;100796.47;5013020;28;20444;-74
2022/03/01 02:25:08;;;;;;;33.97;16.50;;;;;;;37.55;46.41;100798.09;5013028;28;20418;-72
2022/03/01 02:27:34;;;;;;;29.20;15.97;;;;;;;37.64;46.08;100799.00;5012985;28;20405;-73
2022/03/01 02:30:00;;;;;;;33.23;16.20;;;;;;;37.81;45.81;100792.94;5013077;28;20440;-73
2022/03/01 02:32:26;;;;;;;29.00;16.40;;;;;;;37.57;46.35;100788.59;5014249;28;20401;-72
2022/03/01 02:34:52;;;;;;;51.57;16.70;;;;;;;37.36;46.57;100790.13;5013999;28;20952;-72
2022/03/01 02:37:18;;;;;;;36.50;18.00;;;;;;;37.76;45.92;100791.13;5012713;28;20470;-73
2022/03/01 02:39:44;;;;;;;36.20;17.03;;;;;;;37.74;45.25;100782.50;5012672;28;20416;-72
2022/03/01 02:42:10;;;;;;;42.30;17.77;;;;;;;37.44;45.72;100781.28;5012808;28;20543;-72
2022/03/01 02:44:37;;;;;;;33.77;17.87;;;;;;;37.30;46.03;100772.38;5012634;28;20859;-72
2022/03/01 02:47:03;;;;;;;31.07;16.67;;;;;;;37.53;45.89;100782.19;5013793;28;20471;-72
2022/03/01 02:49:29;;;;;;;28.83;17.73;;;;;;;37.68;45.66;100778.31;5012473;28;20860;-74
2022/03/01 02:51:55;;;;;;;39.00;13.90;;;;;;;37.80;45.24;100780.47;5012271;28;20824;-74
2022/03/01 02:54:21;;;;;;;26.77;16.20;;;;;;;37.83;45.03;100769.88;5012394;28;20892;-74
2022/03/01 02:56:47;;;;;;;39.03;16.40;;;;;;;37.70;45.78;100775.31;5012352;28;20423;-74
2022/03/01 02:59:13;;;;;;;35.63;17.20;;;;;;;37.56;45.70;100770.72;5013147;28;20447;-73
2022/03/01 03:01:40;;;;;;;28.70;15.27;;;;;;;37.80;44.93;100783.19;5012163;28;20452;-72
2022/03/01 03:04:06;;;;;;;35.93;15.57;;;;;;;37.54;45.07;100789.19;5013363;28;20796;-72
2022/03/01 03:06:32;;;;;;;31.27;15.50;;;;;;;37.68;44.83;100785.63;5012152;28;20789;-73
2022/03/01 03:08:58;;;;;;;31.23;14.97;;;;;;;37.26;45.62;100790.31;5012534;28;20420;-72
2022/03/01 03:11:24;;;;;;;35.03;15.30;;;;;;;37.70;45.46;100783.44;5011965;28;20436;-72
2022/03/01 03:13:50;;;;;;;29.53;15.00;;;;;;;37.68;45.60;100786.44;5011120;28;20475;-73
2022/03/01 03:16:16;;;;;;;35.97;15.43;;;;;;;37.83;45.34;100785.31;5011767;28;20507;-74
2022/03/01 03:18:43;;;;;;;55.57;17.27;;;;;;;37.88;45.71;100794.13;5011995;28;20935;-72
2022/03/01 03:21:10;;;;;;;43.00;17.13;;;;;;;37.96;45.56;100794.50;5011723;28;20924;-74
2022/03/01 03:23:37;;;;;;;32.67;17.63;;;;;;;37.47;46.70;100799.63;5012594;28;20393;-74
2022/03/01 03:26:03;;;;;;;38.63;17.20;;;;;;;37.31;46.46;100792.91;5011256;28;20412;-72
2022/03/01 03:28:29;;;;;;;30.20;17.33;;;;;;;37.10;46.95;100801.47;5011860;28;20413;-73
2022/03/01 03:30:55;;;;;;;34.43;17.30;;;;;;;37.39;45.91;100808.47;5011771;28;20416;-74
2022/03/01 03:33:22;;;;;;;27.67;17.03;;;;;;;37.61;45.79;100810.41;5011744;28;20413;-73
2022/03/01 03:35:48;;;;;;;39.40;15.13;;;;;;;37.38;46.54;100804.97;5011757;28;20455;-72
2022/03/01 03:38:14;;;;;;;38.17;16.30;;;;;;;37.53;46.46;100805.72;5011547;28;20421;-73
2022/03/01 03:40:40;;;;;;;30.77;15.23;;;;;;;37.76;45.08;100804.66;5011725;28;20424;-74
2022/03/01 03:43:06;;;;;;;31.00;16.47;;;;;;;37.68;45.43;100815.41;5012762;28;20447;-74
2022/03/01 03:45:32;;;;;;;40.97;18.20;;;;;;;37.85;45.15;100810.97;5011833;28;20433;-73
2022/03/01 03:47:58;;;;;;;41.73;17.50;;;;;;;37.90;45.83;100812.75;5011562;28;20422;-72
2022/03/01 03:50:24;;;;;;;24.27;16.17;;;;;;;38.00;45.26;100807.13;5011436;28;20448;-72
2022/03/01 03:52:50;;;;;;;40.53;15.87;;;;;;;38.14;44.86;100804.34;5011475;28;20451;-73
2022/03/01 03:55:16;;;;;;;32.73;15.43;;;;;;;37.99;44.81;100808.19;5011477;28;20409;-73
2022/03/01 03:57:42;;;;;;;37.63;15.90;;;;;;;37.61;45.97;100808.50;5011300;28;21254;-72
2022/03/01 04:00:15;;;;;;;33.97;17.23;;;;;;;37.74;45.13;100811.47;5011319;28;20412;-72
2022/03/01 04:02:42;;;;;;;36.53;15.33;;;;;;;37.72;45.46;100825.31;5010948;28;20488;-72
2022/03/01 04:05:12;;;;;;;28.03;16.27;;;;;;;37.76;45.02;100828.22;5011543;28;20435;-72
2022/03/01 04:07:43;;;;;;;40.33;16.67;;;;;;;37.75;45.81;100810.38;5011148;28;20421;-73
2022/03/01 04:10:10;;;;;;;27.83;14.67;;;;;;;37.69;45.47;100815.13;5010350;28;20473;-73
2022/03/01 04:12:36;;;;;;;34.13;16.23;;;;;;;37.78;45.39;100817.91;5011008;28;20428;-73
2022/03/01 04:15:04;;;;;;;35.80;15.83;;;;;;;37.67;44.67;100821.94;5010934;28;20526;-73
2022/03/01 04:17:30;;;;;;;30.63;17.00;;;;;;;37.53;45.29;100821.97;5010798;28;20479;-72
2022/03/01 04:19:56;;;;;;;30.37;16.10;;;;;;;37.80;44.58;100824.63;5012279;28;20401;-72
2022/03/01 04:22:23;;;;;;;30.63;16.53;;;;;;;37.60;44.87;100816.94;5010883;28;20444;-73
2022/03/01 04:24:49;;;;;;;39.87;16.37;;;;;;;37.78;44.54;100818.69;5010941;28;20515;-72
2022/03/01 04:27:17;;;;;;;30.43;16.57;;;;;;;38.00;44.56;100819.81;5012304;28;20393;-72
2022/03/01 04:29:44;;;;;;;29.07;14.63;;;;;;;37.79;44.29;100816.78;5010829;28;20440;-73
2022/03/01 04:32:10;;;;;;;30.67;17.03;;;;;;;37.69;44.49;100819.72;5010752;28;20862;-75
2022/03/01 04:34:37;;;;;;;31.70;17.00;;;;;;;37.71;44.48;100821.03;5010887;28;20427;-72
2022/03/01 04:37:03;;;;;;;35.43;14.60;;;;;;;37.90;44.53;100808.16;4994296;28;20848;-73
2022/03/01 04:39:29;;;;;;;44.20;16.60;;;;;;;37.74;44.85;100806.88;4978514;28;20418;-73
2022/03/01 04:41:56;;;;;;;37.80;16.60;;;;;;;37.90;44.49;100812.75;5010698;28;20877;-74
2022/03/01 04:44:23;;;;;;;29.47;17.10;;;;;;;37.75;44.63;100807.66;5010243;28;20452;-73
2022/03/01 04:46:49;;;;;;;36.97;19.00;;;;;;;37.78;44.61;100812.47;5012130;28;20396;-72
2022/03/01 04:49:15;;;;;;;34.60;17.80;;;;;;;37.71;44.83;100825.63;5010631;28;20419;-73
2022/03/01 04:51:42;;;;;;;32.00;17.53;;;;;;;37.55;44.64;100817.84;4994325;28;20475;-74
2022/03/01 04:54:08;;;;;;;42.20;15.60;;;;;;;37.50;44.56;100817.16;5010678;28;20478;-74
2022/03/01 04:56:34;;;;;;;37.03;16.13;;;;;;;37.59;44.06;100818.06;5011927;28;20397;-73
2022/03/01 04:59:00;;;;;;;42.67;17.20;;;;;;;37.59;44.40;100821.56;5010557;28;20532;-72
2022/03/01 05:01:26;;;;;;;46.87;19.73;;;;;;;37.75;44.40;100815.78;5010562;28;20409;-73
2022/03/01 05:03:52;;;;;;;38.03;14.70;;;;;;;37.45;45.16;100822.69;5010527;28;20514;-73
2022/03/01 05:06:20;;;;;;;29.23;15.53;;;;;;;37.62;44.50;100831.75;5010475;28;20434;-74
2022/03/01 05:08:46;;;;;;;31.93;16.00;;;;;;;37.20;44.90;100824.81;5010483;28;20422;-72
2022/03/01 05:11:12;;;;;;;34.03;15.53;;;;;;;37.49;44.79;100829.88;5010433;28;20809;-72
2022/03/01 05:13:38;;;;;;;40.97;16.50;;;;;;;37.58;44.41;100835.41;5010368;28;20424;-73
2022/03/01 05:16:04;;;;;;;31.40;14.60;;;;;;;37.52;44.41;100832.00;5010381;28;20431;-74
2022/03/01 05:18:30;;;;;;;31.27;18.97;;;;;;;37.67;43.69;100840.88;5010486;28;20437;-72
2022/03/01 05:20:57;;;;;;;34.00;15.70;;;;;;;37.50;43.53;100831.47;5011374;28;20493;-72
2022/03/01 05:23:23;;;;;;;34.87;14.67;;;;;;;37.66;43.76;100842.78;5015487;28;20519;-73
2022/03/01 05:25:49;;;;;;;35.57;16.60;;;;;;;37.50;45.26;100847.72;5014124;28;20524;-73
2022/03/01 05:28:15;;;;;;;28.03;15.63;;;;;;;37.58;44.58;100844.31;5013932;28;20448;-74
2022/03/01 05:30:41;;;;;;;36.00;15.63;;;;;;;37.54;44.59;100850.63;5014127;28;20421;-73
2022/03/01 05:33:07;;;;;;;22.93;16.47;;;;;;;37.64;44.29;100853.94;5014175;28;20427;-73
2022/03/01 05:35:33;;;;;;;40.50;16.10;;;;;;;37.80;44.42;100857.09;5015312;28;20416;-73
2022/03/01 05:37:59;;;;;;;33.17;15.33;;;;;;;38.05;43.46;100852.22;5013901;28;20423;-74
2022/03/01 05:40:28;;;;;;;34.17;15.10;;;;;;;37.89;43.72;100860.69;5013808;28;20416;-73
2022/03/01 05:42:55;;;;;;;28.53;13.13;;;;;;;37.92;43.68;100856.56;5013830;28;20525;-74
2022/03/01 05:45:22;;;;;;;31.77;17.20;;;;;;;37.60;44.22;100852.94;5015025;28;20401;-74
2022/03/01 05:47:48;;;;;;;37.03;18.90;;;;;;;37.42;44.58;100853.84;5013816;28;20913;-73
2022/03/01 05:50:17;;;;;;;35.20;16.27;;;;;;;37.49;44.72;100856.94;5013714;28;20995;-74
2022/03/01 05:52:43;;;;;;;35.30;18.83;;;;;;;37.56;44.60;100865.44;5014921;28;20768;-74
2022/03/01 05:55:10;;;;;;;37.33;19.37;;;;;;;37.59;44.98;100859.44;5013626;28;20405;-73
2022/03/01 05:57:37;;;;;;;38.73;17.97;;;;;;;37.79;44.30;100865.50;5012878;28;20491;-73
2022/03/01 06:00:10;;;;;;;149.77;108.90;;;;;;;37.48;44.90;100871.59;5014267;28;20963;-74
2022/03/01 06:02:36;;;;;;;272.80;176.87;;;;;;;37.80;44.75;100872.53;5013292;28;20490;-73
2022/03/01 06:05:02;;;;;;;215.33;135.23;;;;;;;37.73;44.34;100883.78;5013410;28;20412;-73
2022/03/01 06:07:28;;;;;;;71.97;35.63;;;;;;;37.78;44.37;100880.16;5014677;28;20404;-73
2022/03/01 06:09:54;;;;;;;75.10;40.03;;;;;;;37.89;43.90;100881.56;5013318;28;20408;-73
2022/03/01 06:12:21;;;;;;;78.00;37.17;;;;;;;37.76;44.00;100882.38;5013009;28;20443;-73
2022/03/01 06:14:47;;;;;;;52.40;28.73;;;;;;;37.88;43.30;100872.66;5014346;28;20543;-73
2022/03/01 06:17:13;;;;;;;44.17;21.83;;;;;;;37.70;44.07;100889.00;5013193;28;20428;-74
2022/03/01 06:19:39;;;;;;;49.53;22.47;;;;;;;37.82;43.82;100886.59;5012933;28;20449;-74
2022/03/01 06:22:06;;;;;;;48.47;23.47;;;;;;;37.67;43.67;100887.69;5012627;28;20452;-73
2022/03/01 06:24:34;;;;;;;43.77;20.70;;;;;;;38.09;43.53;100897.34;5012949;28;20428;-73
2022/03/01 06:27:00;;;;;;;47.17;19.97;;;;;;;37.97;43.32;100891.66;5011361;28;20891;-73
2022/03/01 06:29:26;;;;;;;34.27;18.23;;;;;;;37.92;43.77;100891.78;5012856;28;20424;-73
2022/03/01 06:31:52;;;;;;;73.50;18.90;;;;;;;38.11;43.39;100897.81;4993188;28;20498;-73
2022/03/01 06:34:18;;;;;;;41.40;19.00;;;;;;;37.93;43.64;100898.78;5011892;28;20417;-73
2022/03/01 06:36:44;;;;;;;53.47;19.17;;;;;;;37.95;43.65;100895.81;5012403;28;20436;-73
2022/03/01 06:39:11;;;;;;;35.73;18.43;;;;;;;37.93;43.37;100893.38;5013299;28;20436;-76
2022/03/01 06:41:37;;;;;;;38.47;20.57;;;;;;;38.01;43.04;100895.38;5012141;28;20843;-73
2022/03/01 06:44:03;;;;;;;31.23;16.03;;;;;;;37.80;43.43;100892.31;5013420;28;20420;-73
2022/03/01 06:46:29;;;;;;;35.63;16.47;;;;;;;38.06;42.50;100900.69;5012264;28;20471;-73
2022/03/01 06:48:55;;;;;;;40.77;19.13;;;;;;;37.79;43.64;100889.88;5012070;28;20447;-73
2022/03/01 06:51:21;;;;;;;27.13;15.67;;;;;;;38.01;43.45;100891.88;5011978;28;20413;-73
2022/03/01 06:53:47;;;;;;;47.40;17.83;;;;;;;38.12;43.20;100893.22;5013812;28;20403;-73
2022/03/01 06:56:13;;;;;;;34.47;19.60;;;;;;;37.96;43.60;100894.69;5011857;28;20441;-75
2022/03/01 06:58:39;;;;;;;44.87;17.13;;;;;;;38.04;43.07;100900.16;5012201;28;20774;-73
2022/03/01 07:01:05;;;;;;;37.07;20.93;;;;;;;38.01;43.44;100898.09;5012248;28;20474;-74
2022/03/01 07:03:31;;;;;;;36.00;19.30;;;;;;;37.72;43.70;100909.25;5011234;28;20462;-73
2022/03/01 07:05:58;;;;;;;37.83;18.67;;;;;;;37.96;43.50;100909.03;5009251;28;20459;-73
2022/03/01 07:08:25;;;;;;;34.07;17.50;;;;;;;37.79;44.06;100904.22;4999102;28;20424;-74
2022/03/01 07:10:52;;;;;;;27.10;14.50;;;;;;;37.94;43.30;100921.25;5011642;28;20510;-73
2022/03/01 07:13:19;;;;;;;46.67;17.60;;;;;;;38.03;43.88;100922.94;5011988;28;20416;-70
2022/03/01 07:15:45;;;;;;;41.10;19.93;;;;;;;37.87;43.57;100927.88;5011548;28;20503;-73
2022/03/01 07:18:11;;;;;;;40.17;17.70;;;;;;;37.61;44.69;100929.50;5011575;28;20968;-73
2022/03/01 07:20:37;;;;;;;35.23;17.70;;;;;;;37.75;44.21;100934.91;5011488;28;20432;-73
2022/03/01 07:23:05;;;;;;;36.60;16.10;;;;;;;37.86;44.28;100939.81;5011197;28;20452;-73
2022/03/01 07:25:31;;;;;;;34.93;17.67;;;;;;;37.75;44.32;100940.31;5011043;28;20514;-73
2022/03/01 07:27:58;;;;;;;28.83;16.37;;;;;;;37.95;43.30;100939.13;5010274;28;20420;-78
2022/03/01 07:30:26;;;;;;;34.37;17.17;;;;;;;38.11;43.46;100938.47;5010895;28;20443;-76
2022/03/01 07:32:53;;;;;;;32.23;17.83;;;;;;;37.84;43.71;100944.75;5011250;28;20405;-75
2022/03/01 07:35:20;;;;;;;38.93;16.13;;;;;;;37.96;43.05;100935.31;5010796;28;20487;-72
2022/03/01 07:37:47;;;;;;;27.47;16.67;;;;;;;38.10;43.37;100939.56;5008994;28;20878;-77
2022/03/01 07:40:14;;;;;;;23.73;14.93;;;;;;;38.13;43.95;100943.59;5009526;28;20861;-74
2022/03/01 07:42:42;;;;;;;36.53;16.33;;;;;;;38.21;43.58;100944.75;5010863;28;20486;-76
2022/03/01 07:45:09;;;;;;;36.73;19.73;;;;;;;38.11;42.94;100956.63;5010155;28;20951;-73
2022/03/01 07:47:35;;;;;;;35.20;18.00;;;;;;;37.88;43.36;100953.09;5009772;28;20478;-74
2022/03/01 07:50:02;;;;;;;35.27;16.70;;;;;;;38.15;43.86;100957.63;5010846;28;20409;-76
2022/03/01 07:52:28;;;;;;;43.20;17.20;;;;;;;38.17;43.93;100961.63;5012017;28;20389;-73
2022/03/01 07:54:54;;;;;;;43.80;17.87;;;;;;;38.16;43.29;100961.94;5010467;28;20426;-72
2022/03/01 07:57:20;;;;;;;37.10;16.03;;;;;;;38.09;44.35;100966.97;5011447;28;20447;-71
2022/03/01 07:59:47;;;;;;;43.33;17.73;;;;;;;37.95;44.39;100968.91;5010403;28;20437;-71
2022/03/01 08:02:13;;;;;;;34.20;18.70;;;;;;;37.97;44.79;100970.19;5011550;28;20447;-72
2022/03/01 08:04:41;;;;;;;47.60;18.43;;;;;;;37.98;44.15;100971.78;5010215;28;20502;-70
2022/03/01 08:07:09;;;;;;;34.63;18.07;;;;;;;38.04;43.61;100967.06;5008953;28;20419;-72
2022/03/01 08:09:36;;;;;;;47.63;15.43;;;;;;;38.03;44.49;100973.59;5010644;28;20452;-74
2022/03/01 08:12:04;;;;;;;43.73;16.30;;;;;;;37.85;45.39;100980.75;5010627;28;20447;-72
2022/03/01 08:14:31;;;;;;;51.07;17.50;;;;;;;37.78;45.48;100983.03;5009399;28;20478;-66
2022/03/01 08:16:58;;;;;;;39.87;18.57;;;;;;;37.84;45.05;100990.78;5008839;28;20412;-66
2022/03/01 08:19:24;;;;;;;36.80;17.60;;;;;;;37.60;44.98;100992.88;5009821;28;20424;-67
2022/03/01 08:21:51;;;;;;;38.40;15.30;;;;;;;37.56;44.40;100989.16;5010087;28;20447;-67
2022/03/01 08:24:18;;;;;;;39.90;18.67;;;;;;;37.64;44.02;100986.56;5009343;28;20899;-67
2022/03/01 08:26:45;;;;;;;38.87;17.53;;;;;;;37.88;43.69;100999.13;5011622;28;20417;-67
2022/03/01 08:29:11;;;;;;;25.07;15.70;;;;;;;37.85;44.51;100988.88;4992671;28;20435;-67
2022/03/01 08:31:40;;;;;;;38.87;16.87;;;;;;;37.99;44.51;101002.38;5009350;28;20444;-67
2022/03/01 08:34:07;;;;;;;38.23;16.80;;;;;;;38.03;44.20;100992.56;5009876;28;20416;-68
2022/03/01 08:36:34;;;;;;;25.93;14.93;;;;;;;38.05;43.66;100998.47;4994813;28;20407;-66
2022/03/01 08:39:01;;;;;;;29.20;15.20;;;;;;;38.25;43.63;100989.91;5009507;28;20444;-67
2022/03/01 08:41:27;;;;;;;29.50;15.80;;;;;;;37.73;44.42;100988.53;5009214;28;20424;-67
2022/03/01 08:43:53;;;;;;;32.17;16.50;;;;;;;37.85;44.62;100991.59;5009154;28;20455;-67
2022/03/01 08:46:19;;;;;;;40.43;15.30;;;;;;;37.73;44.09;100988.53;5009310;28;20424;-68
2022/03/01 08:48:45;;;;;;;46.43;16.43;;;;;;;37.46;44.95;100986.66;5010351;28;20448;-66
2022/03/01 08:51:12;;;;;;;34.90;15.67;;;;;;;37.77;44.70;100998.47;5009649;28;20419;-66
2022/03/01 08:53:39;;;;;;;34.70;15.43;;;;;;;37.60;45.12;100996.38;5009593;28;20944;-69
2022/03/01 08:56:08;;;;;;;30.83;15.93;;;;;;;38.20;43.65;101006.28;5010884;28;20416;-67
2022/03/01 08:58:34;;;;;;;39.80;17.67;;;;;;;38.07;44.23;101004.41;5013197;28;20843;-68
2022/03/01 09:01:00;;;;;;;38.67;16.60;;;;;;;37.70;44.83;101008.13;5014057;28;20920;-68
2022/03/01 09:03:28;;;;;;;32.20;15.67;;;;;;;37.60;44.85;101006.41;5012638;28;20464;-67
2022/03/01 09:05:54;;;;;;;24.67;16.07;;;;;;;37.48;45.41;101003.38;5013047;28;20436;-71
2022/03/01 09:08:20;;;;;;;35.83;15.73;;;;;;;37.46;44.64;101006.41;5013237;28;20423;-68
2022/03/01 09:10:46;;;;;;;41.60;15.10;;;;;;;37.31;44.93;101006.63;5014096;28;20912;-69
2022/03/01 09:13:12;;;;;;;45.63;17.43;;;;;;;37.78;44.45;101012.81;5007002;28;20919;-69
2022/03/01 09:15:38;;;;;;;32.73;15.83;;;;;;;37.36;45.35;101009.28;5013386;28;20482;-69
2022/03/01 09:18:05;;;;;;;37.70;15.80;;;;;;;37.61;45.03;101002.59;5013228;28;20459;-68
2022/03/01 09:20:32;;;;;;;40.50;20.60;;;;;;;37.96;44.29;101013.84;5014494;28;20404;-69
2022/03/01 09:22:59;;;;;;;33.07;17.87;;;;;;;37.82;44.50;101017.38;5013402;28;20456;-69
2022/03/01 09:25:26;;;;;;;53.17;18.63;;;;;;;38.13;43.52;101016.72;5012891;28;20459;-72
2022/03/01 09:27:52;;;;;;;33.80;15.70;;;;;;;38.22;43.47;101009.47;5013733;28;20416;-67
2022/03/01 09:30:19;;;;;;;27.97;14.43;;;;;;;38.49;43.12;101022.19;4996644;28;20448;-66
2022/03/01 09:32:45;;;;;;;41.33;16.97;;;;;;;38.25;43.61;101018.91;4996753;28;20408;-66
2022/03/01 09:35:12;;;;;;;37.57;16.50;;;;;;;37.95;44.97;101015.75;5012930;28;20413;-67
2022/03/01 09:37:38;;;;;;;40.90;18.37;;;;;;;38.42;43.91;101022.59;5013014;28;20431;-68
2022/03/01 09:40:06;;;;;;;35.13;18.50;;;;;;;38.30;44.49;101021.53;4997190;28;20412;-70
2022/03/01 09:42:33;;;;;;;31.33;18.90;;;;;;;38.12;44.90;101017.81;5004435;28;20444;-65
2022/03/01 09:45:00;;;;;;;35.53;15.40;;;;;;;38.14;45.10;101024.53;5013469;28;20418;-66
2022/03/01 09:47:26;;;;;;;42.77;17.90;;;;;;;38.46;44.28;101019.28;5013592;28;20944;-65
2022/03/01 09:49:53;;;;;;;37.50;16.73;;;;;;;38.52;44.12;101023.47;5014472;28;20495;-66
2022/03/01 09:52:20;;;;;;;35.93;16.10;;;;;;;38.14;44.95;101023.75;4996889;28;20826;-66
2022/03/01 09:54:49;;;;;;;43.63;18.40;;;;;;;38.14;45.29;101024.53;5013314;28;20417;-66
2022/03/01 09:57:16;;;;;;;32.37;15.80;;;;;;;38.49;44.33;101029.50;5012483;28;20420;-66
2022/03/01 09:59:42;;;;;;;30.57;17.27;;;;;;;38.70;43.24;101031.44;5020918;28;20794;-68
2022/03/01 10:02:09;;;;;;;44.57;16.70;;;;;;;38.94;42.75;101027.66;5012757;28;20448;-67
2022/03/01 10:04:52;;;;;;;37.93;17.40;;;;;;;38.66;43.38;101024.22;5012607;28;20419;-66
2022/03/01 10:07:28;;;;;;;32.77;16.63;;;;;;;37.99;44.78;101029.47;5003939;28;20788;-67
2022/03/01 10:10:02;;;;;;;32.83;17.17;;;;;;;38.33;44.16;101034.47;4996310;28;20514;-67
2022/03/01 10:12:29;;;;;;;37.53;17.13;;;;;;;38.38;44.56;101034.38;5012467;28;20447;-66
2022/03/01 10:15:10;;;;;;;33.67;15.07;;;;;;;38.36;44.29;101026.53;5013974;28;20472;-66
2022/03/01 10:17:43;;;;;;;38.83;15.40;;;;;;;38.82;42.89;101033.63;4998973;28;20432;-67
2022/03/01 10:20:12;;;;;;;38.40;16.00;;;;;;;38.55;43.99;101029.09;5015926;28;20432;-66
2022/03/01 10:22:44;;;;;;;36.43;16.80;;;;;;;38.69;43.66;101029.84;4993232;28;20548;-66
2022/03/01 10:25:12;;;;;;;38.13;15.80;;;;;;;38.90;43.67;101027.47;5007579;28;20949;-67
2022/03/01 10:27:38;;;;;;;35.17;17.40;;;;;;;38.78;43.86;101018.28;5013023;28;20421;-67
2022/03/01 10:30:06;;;;;;;28.93;16.33;;;;;;;38.77;43.80;101019.41;5011341;28;20427;-67
2022/03/01 10:32:34;;;;;;;34.20;16.30;;;;;;;38.89;43.49;101011.50;5004980;28;20416;-69
2022/03/01 10:35:02;;;;;;;34.80;18.40;;;;;;;38.77;43.66;101012.06;5016141;28;20484;-69
2022/03/01 10:37:32;;;;;;;35.93;17.27;;;;;;;38.73;43.19;101018.41;5005261;28;20427;-66
2022/03/01 10:40:19;;;;;;;44.53;14.20;;;;;;;39.18;42.93;101013.78;5013553;28;20522;-69
2022/03/01 10:43:07;;;;;;;34.47;15.67;;;;;;;39.21;42.88;101013.16;5018001;28;20452;-66
2022/03/01 10:45:47;;;;;;;41.83;18.57;;;;;;;38.88;42.80;101012.63;4996326;28;20456;-67
2022/03/01 10:48:24;;;;;;;39.77;17.53;;;;;;;38.79;43.61;101011.75;5012978;28;20428;-67
2022/03/01 10:51:02;;;;;;;33.20;16.50;;;;;;;38.99;43.12;101005.03;5011896;28;20430;-67
2022/03/01 10:53:35;;;;;;;48.50;17.67;;;;;;;39.01;43.64;101000.88;5006316;28;20793;-68
2022/03/01 10:56:06;;;;;;;34.23;16.50;;;;;;;39.00;43.59;101002.00;5011934;28;20510;-67
2022/03/01 10:58:35;;;;;;;33.93;18.80;;;;;;;39.12;43.28;100994.09;5012906;28;20412;-66
2022/03/01 11:01:01;;;;;;;39.33;17.20;;;;;;;39.06;42.96;100995.34;5011410;28;20405;-67
2022/03/01 11:03:27;;;;;;;35.10;19.27;;;;;;;38.93;43.30;100988.09;5009317;28;20460;-66
2022/03/01 11:05:54;;;;;;;41.67;15.13;;;;;;;38.62;42.98;100982.59;5010153;28;20792;-67
2022/03/01 11:08:41;;;;;;;29.77;13.73;;;;;;;38.72;43.42;100978.84;5003092;28;20474;-66